createdAt,value
2022-09-12T00:01:36.399Z,9.90
2022-09-12T00:04:03.238Z,7.53
2022-09-12T00:06:33.096Z,8.45
2022-09-12T00:09:03.074Z,10.55
2022-09-12T00:11:30.291Z,7.22
2022-09-12T00:14:01.816Z,6.88
2022-09-12T00:16:29.877Z,9.32
2022-09-12T00:18:56.613Z,8.25
2022-09-12T00:21:24.711Z,8.10
2022-09-12T00:23:52.082Z,8.95
2022-09-12T00:26:20.632Z,8.98
2022-09-12T00:28:48.299Z,9.25
2022-09-12T00:31:17.977Z,10.23
2022-09-12T00:33:44.999Z,7.93
2022-09-12T00:36:15.318Z,9.07
2022-09-12T00:38:43.127Z,6.90
2022-09-12T00:41:34.264Z,7.95
2022-09-12T00:44:22.856Z,8.75
2022-09-12T00:46:52.537Z,9.88
2022-09-12T00:49:30.419Z,9.25
2022-09-12T00:52:09.889Z,6.90
2022-09-12T00:54:45.291Z,7.03
2022-09-12T00:57:14.742Z,6.10
2022-09-12T00:59:52.241Z,4.50
2022-09-12T01:02:18.924Z,6.47
2022-09-12T01:04:47.901Z,5.60
2022-09-12T01:07:15.465Z,6.40
2022-09-12T01:09:44.634Z,6.90
2022-09-12T01:12:12.801Z,5.93
2022-09-12T01:14:39.828Z,6.57
2022-09-12T01:17:06.609Z,5.50
2022-09-12T01:20:15.638Z,6.85
2022-09-12T01:22:51.452Z,7.78
2022-09-12T01:25:31.644Z,6.82
2022-09-12T01:28:30.651Z,7.28
2022-09-12T01:31:00.940Z,7.90
2022-09-12T01:33:50.839Z,8.15
2022-09-12T01:36:36.185Z,7.93
2022-09-12T01:39:04.888Z,7.40
2022-09-12T01:41:50.369Z,7.55
2022-09-12T01:44:20.087Z,9.13
2022-09-12T01:47:10.238Z,6.47
2022-09-12T01:50:15.684Z,6.57
2022-09-12T01:52:51.170Z,7.45
2022-09-12T01:55:29.899Z,8.20
2022-09-12T01:58:12.563Z,7.20
2022-09-12T02:00:48.177Z,7.30
2022-09-12T02:03:20.717Z,6.50
2022-09-12T02:05:55.021Z,9.82
2022-09-12T02:08:48.566Z,6.03
2022-09-12T02:11:15.281Z,8.10
2022-09-12T02:13:55.243Z,8.45
2022-09-12T02:16:36.691Z,7.03
2022-09-12T02:19:09.664Z,7.55
2022-09-12T02:21:41.782Z,7.85
2022-09-12T02:26:44.323Z,8.18
2022-09-12T02:29:11.088Z,6.63
2022-09-12T02:31:46.611Z,9.15
2022-09-12T02:34:28.939Z,7.88
2022-09-12T02:37:17.801Z,6.30
2022-09-12T02:39:45.486Z,6.65
2022-09-12T02:42:13.463Z,6.30
2022-09-12T02:44:41.028Z,7.63
2022-09-12T02:47:26.778Z,7.32
2022-09-12T02:49:54.260Z,7.95
2022-09-12T02:52:21.502Z,6.35
2022-09-12T02:54:49.178Z,8.20
2022-09-12T02:57:22.380Z,7.15
2022-09-12T02:59:52.667Z,7.70
2022-09-12T03:02:48.677Z,8.70
2022-09-12T03:05:31.889Z,7.85
2022-09-12T03:08:17.293Z,6.28
2022-09-12T03:11:05.481Z,6.72
2022-09-12T03:13:58.175Z,7.25
2022-09-12T03:16:58.405Z,6.93
2022-09-12T03:19:27.898Z,6.50
2022-09-12T03:22:11.623Z,7.38
2022-09-12T03:24:48.577Z,9.43
2022-09-12T03:27:19.043Z,7.85
2022-09-12T03:29:48.196Z,7.72
2022-09-12T03:32:15.468Z,6.53
2022-09-12T03:34:42.097Z,5.03
2022-09-12T03:37:08.776Z,5.82
2022-09-12T03:39:35.513Z,8.48
2022-09-12T03:42:02.185Z,6.78
2022-09-12T03:44:29.142Z,8.95
2022-09-12T03:46:55.844Z,8.65
2022-09-12T03:49:22.610Z,6.82
2022-09-12T03:51:49.347Z,6.80
2022-09-12T03:54:16.168Z,7.45
2022-09-12T03:56:42.797Z,7.90
2022-09-12T03:59:09.435Z,9.13
2022-09-12T04:01:36.129Z,9.55
2022-09-12T04:04:02.945Z,7.75
2022-09-12T04:06:29.835Z,6.53
2022-09-12T04:08:56.522Z,6.28
2022-09-12T04:11:23.639Z,4.90
2022-09-12T04:13:50.328Z,6.30
2022-09-12T04:16:18.073Z,6.90
2022-09-12T04:18:45.905Z,6.68
2022-09-12T04:21:18.904Z,6.53
2022-09-12T04:23:45.834Z,8.43
2022-09-12T04:26:13.917Z,8.68
2022-09-12T04:28:41.801Z,8.30
2022-09-12T04:31:15.683Z,9.80
2022-09-12T04:33:42.363Z,8.30
2022-09-12T04:36:12.177Z,8.23
2022-09-12T04:38:39.052Z,8.65
2022-09-12T04:41:16.933Z,6.05
2022-09-12T04:43:46.578Z,8.88
2022-09-12T04:46:15.490Z,8.65
2022-09-12T04:48:43.333Z,8.38
2022-09-12T04:51:12.258Z,7.85
2022-09-12T04:53:39.138Z,7.93
2022-09-12T04:56:08.151Z,7.57
2022-09-12T04:58:35.808Z,8.30
2022-09-12T05:01:11.766Z,9.38
2022-09-12T05:03:39.615Z,9.38
2022-09-12T05:06:08.418Z,10.13
2022-09-12T05:08:35.567Z,9.07
2022-09-12T05:11:05.105Z,9.77
2022-09-12T05:13:32.987Z,10.80
2022-09-12T05:16:01.567Z,11.90
2022-09-12T05:18:29.140Z,10.35
2022-09-12T05:20:55.741Z,9.07
2022-09-12T05:23:22.575Z,10.15
2022-09-12T05:25:53.303Z,10.15
2022-09-12T05:28:21.123Z,11.95
2022-09-12T05:30:48.533Z,8.25
2022-09-12T05:33:15.509Z,8.10
2022-09-12T05:35:42.100Z,9.15
2022-09-12T05:38:08.737Z,8.68
2022-09-12T05:40:35.772Z,12.60
2022-09-12T05:43:02.414Z,9.73
2022-09-12T05:45:29.985Z,8.57
2022-09-12T05:47:56.717Z,10.27
2022-09-12T05:50:23.362Z,9.57
2022-09-12T05:52:50.593Z,8.88
2022-09-12T05:55:17.368Z,10.35
2022-09-12T05:57:46.102Z,8.85
2022-09-12T06:00:14.955Z,9.88
2022-09-12T06:02:42.204Z,12.00
2022-09-12T06:05:09.178Z,13.75
2022-09-12T06:07:36.175Z,11.18
2022-09-12T06:10:05.354Z,9.00
2022-09-12T06:12:32.134Z,9.65
2022-09-12T06:14:58.734Z,11.73
2022-09-12T06:17:25.363Z,10.98
2022-09-12T06:19:52.054Z,12.38
2022-09-12T06:22:19.257Z,9.43
2022-09-12T06:24:45.934Z,10.60
2022-09-12T06:27:12.581Z,10.45
2022-09-12T06:29:39.239Z,11.07
2022-09-12T06:32:07.031Z,11.40
2022-09-12T06:34:33.872Z,8.93
2022-09-12T06:37:00.528Z,10.80
2022-09-12T06:39:27.269Z,10.07
2022-09-12T06:41:54.338Z,9.15
2022-09-12T06:44:32.947Z,12.15
2022-09-12T06:46:59.633Z,10.18
2022-09-12T06:49:26.451Z,9.48
2022-09-12T06:51:53.086Z,10.05
2022-09-12T06:54:20.159Z,6.85
2022-09-12T06:56:46.859Z,9.27
2022-09-12T06:59:13.556Z,10.57
2022-09-12T07:01:41.874Z,11.73
2022-09-12T07:04:08.814Z,8.55
2022-09-12T07:06:40.700Z,8.70
2022-09-12T07:09:10.542Z,10.68
2022-09-12T07:11:38.467Z,12.35
2022-09-12T07:14:06.839Z,8.82
2022-09-12T07:16:35.961Z,10.60
2022-09-12T07:19:04.181Z,6.20
2022-09-12T07:21:30.945Z,6.95
2022-09-12T07:23:58.467Z,9.80
2022-09-12T07:26:28.126Z,6.63
2022-09-12T07:29:07.930Z,7.78
2022-09-12T07:31:39.748Z,8.68
2022-09-12T07:34:06.864Z,6.50
2022-09-12T07:36:34.480Z,7.18
2022-09-12T07:39:01.722Z,7.60
2022-09-12T07:41:30.701Z,11.18
2022-09-12T07:43:59.061Z,9.13
2022-09-12T07:46:27.819Z,9.00
2022-09-12T07:48:56.501Z,8.68
2022-09-12T07:51:24.418Z,8.57
2022-09-12T07:53:51.858Z,6.68
2022-09-12T07:56:19.957Z,7.93
2022-09-12T07:58:47.121Z,6.05
2022-09-12T08:01:23.157Z,5.68
2022-09-12T08:03:54.307Z,7.28
2022-09-12T08:06:25.212Z,6.55
2022-09-12T08:08:54.185Z,5.38
2022-09-12T08:11:23.170Z,7.43
2022-09-12T08:13:55.424Z,5.60
2022-09-12T08:16:24.574Z,7.93
2022-09-12T08:18:51.437Z,5.68
2022-09-12T08:21:23.221Z,5.57
2022-09-12T08:24:01.777Z,6.10
2022-09-12T08:26:28.936Z,5.70
2022-09-12T08:28:55.610Z,6.45
2022-09-12T08:31:24.326Z,6.43
2022-09-12T08:33:51.175Z,5.93
2022-09-12T08:36:21.232Z,7.10
2022-09-12T08:38:50.249Z,5.15
2022-09-12T08:41:55.996Z,4.32
2022-09-12T08:44:28.664Z,9.57
2022-09-12T08:47:26.884Z,4.78
2022-09-12T08:50:08.938Z,5.82
2022-09-12T08:55:25.734Z,5.00
2022-09-12T08:57:52.779Z,5.47
2022-09-12T09:00:21.461Z,3.55
2022-09-12T09:02:54.366Z,6.15
2022-09-12T09:05:30.047Z,4.47
2022-09-12T09:08:05.745Z,3.88
2022-09-12T09:10:35.296Z,3.90
2022-09-12T09:13:51.976Z,5.03
2022-09-12T09:16:32.233Z,4.47
2022-09-12T09:19:04.457Z,4.22
2022-09-12T09:21:54.567Z,4.47
2022-09-12T09:24:33.901Z,5.80
2022-09-12T09:27:39.227Z,3.95
2022-09-12T09:30:14.328Z,4.68
2022-09-12T09:32:42.846Z,3.60
2022-09-12T09:35:39.210Z,4.43
2022-09-12T09:38:22.366Z,3.22
2022-09-12T09:41:09.191Z,4.40
2022-09-12T09:43:38.012Z,3.10
2022-09-12T09:46:05.401Z,3.45
2022-09-12T09:48:35.932Z,4.28
2022-09-12T09:51:07.169Z,4.18
2022-09-12T09:53:58.317Z,4.22
2022-09-12T09:56:36.905Z,3.95
2022-09-12T09:59:15.541Z,3.88
2022-09-12T10:02:03.938Z,4.38
2022-09-12T10:04:41.432Z,3.85
2022-09-12T10:07:19.936Z,3.92
2022-09-12T10:10:07.057Z,3.85
2022-09-12T10:12:33.709Z,4.57
2022-09-12T10:15:02.311Z,2.97
2022-09-12T10:17:34.633Z,4.35
2022-09-12T10:20:20.448Z,3.65
2022-09-12T10:22:49.337Z,4.53
2022-09-12T10:25:18.652Z,3.03
2022-09-12T10:27:53.771Z,4.57
2022-09-12T10:30:24.775Z,2.95
2022-09-12T10:32:54.197Z,4.05
2022-09-12T10:35:42.547Z,3.67
2022-09-12T10:38:24.962Z,4.85
2022-09-12T10:41:01.484Z,4.20
2022-09-12T10:43:39.227Z,3.95
2022-09-12T10:46:15.685Z,3.97
2022-09-12T10:48:44.533Z,4.60
2022-09-12T10:51:28.967Z,4.20
2022-09-12T10:54:01.062Z,3.83
2022-09-12T10:56:33.672Z,3.60
2022-09-12T10:59:16.772Z,4.85
2022-09-12T11:01:49.575Z,4.03
2022-09-12T11:04:45.816Z,3.15
2022-09-12T11:07:27.465Z,3.88
2022-09-12T11:10:03.079Z,3.28
2022-09-12T11:12:51.220Z,3.65
2022-09-12T11:15:27.008Z,3.58
2022-09-12T11:18:14.853Z,3.95
2022-09-12T11:21:02.009Z,3.03
2022-09-12T11:24:07.183Z,2.58
2022-09-12T11:26:52.052Z,3.13
2022-09-12T11:29:45.709Z,3.25
2022-09-12T11:32:27.577Z,3.10
2022-09-12T11:37:55.852Z,4.47
2022-09-12T11:40:22.975Z,4.05
2022-09-12T11:42:54.656Z,2.85
2022-09-12T11:45:29.324Z,3.28
2022-09-12T11:48:04.187Z,3.58
2022-09-12T11:50:32.354Z,2.42
2022-09-12T11:53:12.532Z,2.30
2022-09-12T11:55:49.374Z,2.67
2022-09-12T11:58:20.178Z,3.50
2022-09-12T12:01:03.308Z,5.40
2022-09-12T12:03:40.334Z,3.20
2022-09-12T12:06:31.927Z,2.50
2022-09-12T12:08:59.087Z,4.88
2022-09-12T12:11:31.020Z,3.70
2022-09-12T12:14:06.145Z,3.55
2022-09-12T12:16:37.213Z,3.22
2022-09-12T12:19:31.281Z,3.33
2022-09-12T12:22:09.080Z,2.67
2022-09-12T12:24:55.795Z,3.10
2022-09-12T12:27:55.273Z,2.90
2022-09-12T12:30:31.147Z,2.83
2022-09-12T12:33:16.011Z,2.80
2022-09-12T12:35:47.933Z,2.63
2022-09-12T12:38:29.798Z,2.47
2022-09-12T12:43:41.971Z,2.22
2022-09-12T12:46:14.373Z,3.10
2022-09-12T12:48:55.611Z,2.28
2022-09-12T12:51:49.393Z,2.88
2022-09-12T12:54:51.081Z,2.78
2022-09-12T12:57:19.881Z,2.13
2022-09-12T12:59:58.235Z,2.40
2022-09-12T13:02:41.358Z,2.70
2022-09-12T13:05:21.139Z,3.25
2022-09-12T13:07:55.715Z,4.93
2022-09-12T13:10:25.307Z,2.45
2022-09-12T13:12:53.177Z,2.47
2022-09-12T13:15:38.042Z,4.22
2022-09-12T13:18:27.908Z,4.22
2022-09-12T13:20:54.475Z,2.30
2022-09-12T13:23:26.628Z,2.35
2022-09-12T13:26:01.916Z,1.60
2022-09-12T13:28:30.159Z,3.97
2022-09-12T13:31:25.805Z,2.08
2022-09-12T13:33:59.985Z,2.10
2022-09-12T13:36:30.139Z,2.50
2022-09-12T13:39:15.505Z,2.92
2022-09-12T13:42:03.273Z,1.70
2022-09-12T13:44:32.836Z,1.60
2022-09-12T13:47:03.075Z,1.20
2022-09-12T13:49:35.319Z,1.70
2022-09-12T13:52:06.275Z,1.63
2022-09-12T13:54:37.918Z,1.55
2022-09-12T13:59:42.748Z,1.50
2022-09-12T14:02:23.784Z,2.22
2022-09-12T14:05:11.495Z,1.48
2022-09-12T14:07:56.196Z,3.55
2022-09-12T14:10:35.746Z,1.75
2022-09-12T14:13:10.556Z,1.77
2022-09-12T14:15:37.904Z,2.03
2022-09-12T14:18:08.875Z,1.17
2022-09-12T14:20:38.679Z,1.75
2022-09-12T14:23:22.213Z,1.98
2022-09-12T14:25:49.961Z,2.58
2022-09-12T14:28:23.146Z,2.30
2022-09-12T14:31:01.672Z,2.92
2022-09-12T14:33:29.466Z,4.03
2022-09-12T14:36:34.590Z,12.05
2022-09-12T14:39:04.598Z,2.88
2022-09-12T14:41:38.456Z,2.53
2022-09-12T14:44:08.556Z,2.22
2022-09-12T14:46:37.979Z,1.95
2022-09-12T14:49:41.169Z,2.47
2022-09-12T14:52:25.075Z,2.45
2022-09-12T14:55:03.785Z,3.05
2022-09-12T14:57:38.887Z,3.17
2022-09-12T15:00:11.844Z,3.00
2022-09-12T15:02:42.909Z,3.13
2022-09-12T15:05:12.049Z,2.25
2022-09-12T15:08:00.530Z,2.13
2022-09-12T15:10:38.143Z,2.33
2022-09-12T15:13:16.992Z,2.38
2022-09-12T15:15:47.913Z,2.35
2022-09-12T15:18:15.123Z,2.50
2022-09-12T15:20:44.282Z,4.43
2022-09-12T15:23:17.050Z,2.60
2022-09-12T15:25:43.625Z,2.17
2022-09-12T15:28:18.029Z,3.30
2022-09-12T15:30:45.142Z,2.97
2022-09-12T15:33:12.227Z,2.95
2022-09-12T15:35:39.392Z,3.33
2022-09-12T15:38:06.099Z,2.38
2022-09-12T15:40:32.693Z,3.42
2022-09-12T15:42:59.750Z,2.50
2022-09-12T15:45:29.422Z,2.15
2022-09-12T15:47:56.797Z,2.65
2022-09-12T15:50:23.868Z,2.08
2022-09-12T15:52:50.566Z,2.42
2022-09-12T15:55:22.294Z,2.35
2022-09-12T16:00:17.828Z,2.00
2022-09-12T16:02:46.440Z,3.42
2022-09-12T16:05:23.367Z,3.17
2022-09-12T16:07:53.329Z,2.75
2022-09-12T16:10:23.865Z,2.67
2022-09-12T16:12:51.441Z,3.10
2022-09-12T16:15:21.258Z,3.33
2022-09-12T16:17:47.999Z,4.85
2022-09-12T16:20:14.900Z,2.33
2022-09-12T16:22:41.749Z,3.70
2022-09-12T16:25:09.210Z,2.92
2022-09-12T16:27:37.468Z,3.08
2022-09-12T16:30:07.229Z,2.63
2022-09-12T16:32:33.980Z,3.92
2022-09-12T16:35:00.709Z,3.05
2022-09-12T16:37:27.618Z,2.10
2022-09-12T16:39:54.229Z,2.35
2022-09-12T16:42:20.925Z,2.92
2022-09-12T16:44:47.677Z,2.42
2022-09-12T16:47:14.925Z,2.10
2022-09-12T16:49:41.534Z,2.95
2022-09-12T16:52:08.714Z,2.65
2022-09-12T16:54:35.363Z,3.40
2022-09-12T16:57:02.648Z,2.80
2022-09-12T16:59:29.327Z,3.28
2022-09-12T17:01:56.048Z,4.43
2022-09-12T17:04:23.707Z,6.38
2022-09-12T17:06:50.549Z,4.82
2022-09-12T17:09:18.678Z,5.95
2022-09-12T17:11:47.790Z,5.25
2022-09-12T17:14:14.436Z,5.07
2022-09-12T17:16:47.967Z,4.82
2022-09-12T17:19:26.429Z,6.53
2022-09-12T17:21:53.097Z,4.65
2022-09-12T17:24:20.213Z,4.07
2022-09-12T17:26:47.048Z,3.95
2022-09-12T17:29:14.251Z,4.15
2022-09-12T17:31:41.917Z,4.40
2022-09-12T17:34:09.214Z,5.55
2022-09-12T17:36:35.864Z,3.55
2022-09-12T17:39:04.161Z,5.28
2022-09-12T17:41:34.726Z,4.57
2022-09-12T17:44:03.443Z,4.40
2022-09-12T17:46:34.954Z,5.07
2022-09-12T17:49:03.638Z,3.53
2022-09-12T17:51:31.244Z,5.55
2022-09-12T17:54:00.122Z,5.55
2022-09-12T17:56:28.398Z,5.78
2022-09-12T17:58:56.731Z,5.55
2022-09-12T18:01:43.160Z,4.88
2022-09-12T18:04:10.832Z,4.45
2022-09-12T18:06:38.037Z,4.80
2022-09-12T18:09:07.658Z,4.60
2022-09-12T18:11:34.698Z,3.33
2022-09-12T18:14:02.635Z,4.93
2022-09-12T18:16:29.546Z,3.28
2022-09-12T18:18:56.379Z,4.13
2022-09-12T18:21:23.026Z,4.00
2022-09-12T18:23:49.627Z,4.18
2022-09-12T18:26:16.297Z,3.97
2022-09-12T18:28:44.354Z,4.53
2022-09-12T18:31:14.458Z,4.68
2022-09-12T18:33:41.239Z,4.03
2022-09-12T18:36:10.523Z,4.38
2022-09-12T18:38:38.073Z,4.25
2022-09-12T18:41:06.741Z,3.40
2022-09-12T18:43:33.416Z,4.82
2022-09-12T18:46:07.247Z,4.28
2022-09-12T18:48:34.944Z,3.80
2022-09-12T18:51:09.889Z,5.00
2022-09-12T18:53:37.431Z,4.57
2022-09-12T18:56:10.307Z,4.18
2022-09-12T18:58:38.890Z,4.43
2022-09-12T19:01:17.668Z,4.47
2022-09-12T19:03:45.613Z,4.63
2022-09-12T19:06:17.949Z,3.00
2022-09-12T19:08:45.703Z,4.22
2022-09-12T19:11:13.220Z,3.63
2022-09-12T19:13:43.228Z,3.85
2022-09-12T19:16:14.220Z,4.32
2022-09-12T19:18:41.631Z,3.97
2022-09-12T19:21:16.678Z,3.63
2022-09-12T19:23:43.664Z,4.38
2022-09-12T19:26:12.592Z,3.35
2022-09-12T19:28:39.812Z,5.90
2022-09-12T19:31:12.969Z,6.07
2022-09-12T19:33:40.518Z,4.28
2022-09-12T19:36:33.742Z,7.32
2022-09-12T19:38:58.653Z,4.35
2022-09-12T19:41:25.442Z,8.18
2022-09-12T19:43:52.031Z,4.47
2022-09-12T19:46:20.795Z,5.30
2022-09-12T19:48:47.895Z,4.45
2022-09-12T19:51:16.106Z,3.10
2022-09-12T19:53:43.543Z,5.15
2022-09-12T19:56:12.005Z,4.53
2022-09-12T19:58:44.285Z,3.75
2022-09-12T20:01:13.262Z,3.22
2022-09-12T20:03:40.182Z,5.60
2022-09-12T20:06:09.507Z,4.18
2022-09-12T20:08:43.934Z,5.85
2022-09-12T20:11:12.303Z,6.50
2022-09-12T20:13:39.257Z,5.88
2022-09-12T20:16:21.755Z,5.40
2022-09-12T20:18:57.650Z,5.70
2022-09-12T20:21:31.226Z,6.28
2022-09-12T20:24:01.519Z,5.95
2022-09-12T20:26:28.175Z,6.93
2022-09-12T20:28:54.831Z,6.07
2022-09-12T20:31:21.585Z,7.22
2022-09-12T20:33:51.801Z,6.50
2022-09-12T20:36:20.695Z,6.50
2022-09-12T20:38:49.893Z,6.53
2022-09-12T20:41:17.275Z,6.53
2022-09-12T20:43:43.874Z,7.85
2022-09-12T20:46:11.435Z,7.60
2022-09-12T20:48:38.966Z,7.13
2022-09-12T20:51:07.273Z,6.53
2022-09-12T20:53:35.380Z,5.50
2022-09-12T20:56:03.698Z,4.85
2022-09-12T20:58:30.326Z,6.28
2022-09-12T21:00:57.122Z,6.70
2022-09-12T21:03:25.462Z,5.97
2022-09-12T21:05:52.717Z,5.22
2022-09-12T21:08:19.427Z,5.00
2022-09-12T21:10:46.088Z,6.95
2022-09-12T21:13:13.746Z,6.47
2022-09-12T21:15:41.392Z,6.75
2022-09-12T21:18:08.144Z,6.70
2022-09-12T21:20:34.815Z,8.93
2022-09-12T21:23:01.656Z,6.80
2022-09-12T21:25:29.512Z,6.93
2022-09-12T21:27:56.158Z,6.07
2022-09-12T21:30:22.772Z,9.25
2022-09-12T21:32:49.413Z,9.38
2022-09-12T21:35:16.430Z,7.72
2022-09-12T21:37:43.096Z,7.07
2022-09-12T21:40:10.138Z,7.35
2022-09-12T21:42:37.330Z,9.10
2022-09-12T21:45:04.291Z,8.65
2022-09-12T21:47:30.986Z,10.52
2022-09-12T21:49:58.441Z,12.30
2022-09-12T21:52:25.411Z,10.45
2022-09-12T21:54:51.992Z,6.03
2022-09-12T21:57:18.599Z,7.57
2022-09-12T21:59:45.198Z,7.00
2022-09-12T22:02:12.475Z,7.95
2022-09-12T22:04:39.205Z,7.45
2022-09-12T22:07:06.039Z,6.47
2022-09-12T22:09:34.358Z,7.28
2022-09-12T22:12:02.457Z,7.78
2022-09-12T22:14:29.682Z,6.30
2022-09-12T22:16:56.802Z,8.10
2022-09-12T22:19:23.494Z,5.38
2022-09-12T22:22:09.103Z,5.63
2022-09-12T22:24:35.716Z,8.40
2022-09-12T22:27:04.711Z,4.97
2022-09-12T22:29:31.999Z,5.70
2022-09-12T22:31:59.663Z,7.15
2022-09-12T22:34:29.130Z,7.60
2022-09-12T22:36:56.371Z,8.18
2022-09-12T22:39:24.077Z,15.18
2022-09-12T22:41:50.985Z,12.07
2022-09-12T22:44:17.891Z,14.07
2022-09-12T22:46:44.765Z,12.82
2022-09-12T22:49:11.424Z,12.88
2022-09-12T22:51:38.527Z,7.50
2022-09-12T22:54:05.902Z,8.60
2022-09-12T22:56:32.791Z,10.80
2022-09-12T22:58:59.421Z,10.20
2022-09-12T23:01:26.091Z,9.23
2022-09-12T23:03:52.806Z,7.03
2022-09-12T23:06:19.465Z,8.60
2022-09-12T23:08:46.124Z,5.43
2022-09-12T23:11:15.506Z,7.88
2022-09-12T23:13:44.916Z,7.07
2022-09-12T23:16:32.093Z,6.88
2022-09-12T23:18:58.757Z,6.32
2022-09-12T23:21:25.505Z,6.85
2022-09-12T23:23:52.243Z,5.78
2022-09-12T23:26:30.724Z,7.07
2022-09-12T23:28:59.372Z,5.70
2022-09-12T23:31:31.436Z,7.30
2022-09-12T23:34:05.960Z,7.68
2022-09-12T23:36:34.211Z,7.35
2022-09-12T23:39:01.161Z,7.95
2022-09-12T23:41:28.120Z,6.32
2022-09-12T23:43:54.835Z,7.60
2022-09-12T23:46:22.326Z,8.02
2022-09-12T23:48:49.522Z,6.55
2022-09-12T23:51:16.298Z,7.05
2022-09-12T23:53:43.060Z,6.70
2022-09-12T23:56:09.991Z,8.07
2022-09-12T23:58:36.919Z,5.57
